Main page
METAR-TAF:

METAR-TAF

Airports :

Valence, France

Valence-Chabeuil Airport

latitude: 44-54-58N, longitude: 4-58-06E, elevation: 160 m

Current weather observation

The report was made 21 minutes ago, at 16:30 UTC
Wind 12 kt from the South
Temperature 29°C
Humidity 45%
Pressure 1012 hPa
Visibility 10 km or more

METAR: LFLU 221630Z AUTO 19012KT 9999 FEW082/// BKN240/// ///CB 29/16 Q1012

Time: 18:51 (16:51 UTC)


TAF: missing

Weather observations and forecasts of more than 4000 airports (METAR and TAF reports).

The available stations are represented by yellow and red dots on the map.

Hover mouse over dot to see the name of the station.

Then click to see weather observations and forecasts.

To change the map : click on the green buttons with a black cross to zoom in, on the green button with a dash to zoom out, or on the green arrows for adjacent maps.


METAR-TAF: